Terminal Aerodrome Forecast
Issued by NWS

Home | Current Version | Previous Version | Text Only | Print | Product List | Glossary On
Versions: 1 2 3 4 5 6 7 8 9 10 11 12 13 14 15 16 17 18 19 20 21 22 23 24 25 26 27 28 29 30 31 32 33 34 35 36 37 38 39 40
000
FTUS45 KSLC 220009 AAA
TAFBCE
TAF AMD
KBCE 220009Z 2200/2224 36013KT P6SM -SHRA VCTS SCT060CB BKN120
     FM220200 29006KT P6SM VCSH SCT120 SCT200
     FM220300 29007KT P6SM FEW120 SCT200
     FM221800 29010KT P6SM VCSH SCT090 SCT200=

USA.gov is the U.S. government's official web portal to all federal, state and local government web resources and services.